createdAt,value
2018-04-24T00:04:42.856Z,7.97
2018-04-24T00:09:45.917Z,7.53
2018-04-24T00:14:48.490Z,8.33
2018-04-24T00:19:51.850Z,7.87
2018-04-24T00:24:54.437Z,6.70
2018-04-24T00:29:57.021Z,7.17
2018-04-24T00:34:59.623Z,7.80
2018-04-24T00:40:02.209Z,7.67
2018-04-24T00:45:04.847Z,7.40
2018-04-24T00:50:07.517Z,8.47
2018-04-24T00:55:10.093Z,8.10
2018-04-24T01:00:13.441Z,8.30
2018-04-24T01:05:16.411Z,8.17
2018-04-24T01:10:20.140Z,8.30
2018-04-24T01:15:23.481Z,8.63
2018-04-24T01:20:26.041Z,8.97
2018-04-24T01:25:29.380Z,7.97
2018-04-24T01:30:31.985Z,9.17
2018-04-24T01:35:34.557Z,8.17
2018-04-24T01:40:37.889Z,9.43
2018-04-24T01:45:41.230Z,9.10
2018-04-24T01:50:43.801Z,9.43
2018-04-24T01:55:47.932Z,8.90
2018-04-24T02:00:51.255Z,8.13
2018-04-24T02:05:54.597Z,9.13
2018-04-24T02:10:57.213Z,9.13
2018-04-24T02:15:59.816Z,8.87
2018-04-24T02:21:02.372Z,9.43
2018-04-24T02:26:04.953Z,9.77
2018-04-24T02:31:07.560Z,9.43
2018-04-24T02:36:10.913Z,10.27
2018-04-24T02:41:13.495Z,10.40
2018-04-24T02:46:16.069Z,9.70
2018-04-24T02:51:19.423Z,8.70
2018-04-24T02:56:22.000Z,9.00
2018-04-24T03:01:24.579Z,9.37
2018-04-24T03:06:27.900Z,9.77
2018-04-24T03:11:30.475Z,9.97
2018-04-24T03:16:33.810Z,9.77
2018-04-24T03:21:37.152Z,9.67
2018-04-24T03:26:39.746Z,9.33
2018-04-24T03:31:42.332Z,9.67
2018-04-24T03:36:44.948Z,10.00
2018-04-24T03:41:47.532Z,9.30
2018-04-24T03:46:50.707Z,10.40
2018-04-24T03:51:53.274Z,10.07
2018-04-24T03:56:55.833Z,9.37
2018-04-24T04:01:59.044Z,11.17
2018-04-24T04:07:01.600Z,9.40
2018-04-24T04:12:04.205Z,10.20
2018-04-24T04:17:19.735Z,10.83
2018-04-24T04:22:35.069Z,10.77
2018-04-24T04:27:39.081Z,10.77
2018-04-24T04:32:41.788Z,11.47
2018-04-24T04:37:44.356Z,10.63
2018-04-24T04:42:48.343Z,11.57
2018-04-24T04:47:51.513Z,12.57
2018-04-24T04:52:55.046Z,13.43
2018-04-24T04:57:57.626Z,13.33
2018-04-24T05:03:01.845Z,13.03
2018-04-24T05:08:05.189Z,13.50
2018-04-24T05:13:10.296Z,13.70
2018-04-24T05:18:12.866Z,13.60
2018-04-24T05:23:16.244Z,12.00
2018-04-24T05:28:20.349Z,12.67
2018-04-24T05:33:22.936Z,13.70
2018-04-24T05:38:25.527Z,13.73
2018-04-24T05:43:29.999Z,12.60
2018-04-24T05:48:33.332Z,13.20
2018-04-24T05:53:37.245Z,13.17
2018-04-24T05:58:45.713Z,13.03
2018-04-24T06:03:48.720Z,12.60
2018-04-24T06:08:51.637Z,13.60
2018-04-24T06:14:09.058Z,12.57
2018-04-24T06:19:12.387Z,12.47
2018-04-24T06:24:17.658Z,11.93
2018-04-24T06:29:20.233Z,12.83
2018-04-24T06:34:24.154Z,12.40
2018-04-24T06:39:30.932Z,11.80
2018-04-24T06:44:33.533Z,12.30
2018-04-24T06:49:37.982Z,12.10
2018-04-24T06:54:44.153Z,11.60
2018-04-24T06:59:46.708Z,12.20
2018-04-24T07:04:49.289Z,11.10
2018-04-24T07:09:52.492Z,11.13
2018-04-24T07:14:56.660Z,11.07
2018-04-24T07:19:59.251Z,13.50
2018-04-24T07:25:01.830Z,12.30
2018-04-24T07:30:04.648Z,11.00
2018-04-24T07:35:07.236Z,13.67
2018-04-24T07:40:10.580Z,10.53
2018-04-24T07:45:14.829Z,10.17
2018-04-24T07:50:17.414Z,10.67
2018-04-24T07:55:22.564Z,10.63
2018-04-24T08:00:25.145Z,9.70
2018-04-24T08:05:27.737Z,11.70
2018-04-24T08:10:30.793Z,9.70
2018-04-24T08:15:34.918Z,10.20
2018-04-24T08:20:38.012Z,9.87
2018-04-24T08:25:43.293Z,9.83
2018-04-24T08:30:45.881Z,8.40
2018-04-24T08:35:49.414Z,8.67
2018-04-24T08:40:52.435Z,9.10
2018-04-24T08:45:55.024Z,9.83
2018-04-24T08:50:58.761Z,9.50
2018-04-24T08:56:02.019Z,8.60
2018-04-24T09:01:05.700Z,9.37
2018-04-24T09:06:08.273Z,7.90
2018-04-24T09:11:11.513Z,9.00
2018-04-24T09:16:15.045Z,8.30
2018-04-24T09:21:18.676Z,6.43
2018-04-24T09:26:22.453Z,7.40
2018-04-24T09:36:56.697Z,6.73
2018-04-24T09:41:59.260Z,7.00
2018-04-24T09:47:01.823Z,6.17
2018-04-24T09:52:04.712Z,5.27
2018-04-24T09:57:07.871Z,5.53
2018-04-24T10:02:10.742Z,5.90
2018-04-24T10:07:13.557Z,5.70
2018-04-24T10:12:16.141Z,5.63
2018-04-24T10:17:19.405Z,5.77
2018-04-24T10:22:22.767Z,5.33
2018-04-24T10:27:25.367Z,5.30
2018-04-24T10:32:28.833Z,5.10
2018-04-24T10:37:31.480Z,4.60
2018-04-24T10:42:37.268Z,4.23
2018-04-24T10:47:39.866Z,4.27
2018-04-24T10:52:46.785Z,5.33
2018-04-24T10:57:49.854Z,4.50
2018-04-24T11:02:52.441Z,4.30
2018-04-24T11:07:56.785Z,4.47
2018-04-24T11:12:59.340Z,4.10
2018-04-24T11:18:03.083Z,4.10
2018-04-24T11:23:06.899Z,3.27
2018-04-24T11:28:10.241Z,4.33
2018-04-24T11:33:12.812Z,4.00
2018-04-24T11:38:15.661Z,3.67
2018-04-24T11:43:18.868Z,4.43
2018-04-24T11:48:21.452Z,5.57
2018-04-24T11:53:24.781Z,4.07
2018-04-24T11:58:27.341Z,3.80
2018-04-24T12:03:29.975Z,3.73
2018-04-24T12:08:32.553Z,3.90
2018-04-24T12:13:36.500Z,3.40
2018-04-24T12:18:39.555Z,3.40
2018-04-24T12:23:42.147Z,3.40
2018-04-24T12:28:45.148Z,3.17
2018-04-24T12:33:47.720Z,3.10
2018-04-24T12:38:50.298Z,3.40
2018-04-24T12:43:59.670Z,3.53
2018-04-24T12:49:04.400Z,3.60
2018-04-24T12:54:07.317Z,3.70
2018-04-24T12:59:10.978Z,2.93
2018-04-24T13:04:14.180Z,3.30
2018-04-24T13:09:17.748Z,3.60
2018-04-24T13:14:21.124Z,3.53
2018-04-24T13:19:23.710Z,2.90
2018-04-24T13:24:26.277Z,3.17
2018-04-24T13:34:39.585Z,2.80
2018-04-24T13:39:42.149Z,2.70
2018-04-24T13:44:47.474Z,2.77
2018-04-24T13:49:50.730Z,2.83
2018-04-24T13:54:54.263Z,3.10
2018-04-24T13:59:57.591Z,2.83
2018-04-24T14:05:00.400Z,2.33
2018-04-24T14:10:02.983Z,2.90
2018-04-24T14:15:06.005Z,3.00
2018-04-24T14:20:08.929Z,2.63
2018-04-24T14:25:12.005Z,2.83
2018-04-24T14:30:16.112Z,2.70
2018-04-24T14:35:18.721Z,2.50
2018-04-24T14:40:23.133Z,3.07
2018-04-24T14:45:26.590Z,2.67
2018-04-24T14:50:30.486Z,2.50
2018-04-24T14:55:33.053Z,2.53
2018-04-24T15:00:38.857Z,3.00
2018-04-24T15:05:41.437Z,2.80
2018-04-24T15:10:44.108Z,3.00
2018-04-24T15:15:47.148Z,2.67
2018-04-24T15:20:49.749Z,2.30
2018-04-24T15:25:52.752Z,3.03
2018-04-24T15:30:55.539Z,2.77
2018-04-24T15:35:58.466Z,2.30
2018-04-24T15:41:01.037Z,3.00
2018-04-24T15:46:04.265Z,2.80
2018-04-24T15:51:07.500Z,3.00
2018-04-24T15:56:11.237Z,2.50
2018-04-24T16:01:14.493Z,3.07
2018-04-24T16:06:17.662Z,2.80
2018-04-24T16:11:20.972Z,2.73
2018-04-24T16:16:25.054Z,2.67
2018-04-24T16:21:34.314Z,2.90
2018-04-24T16:26:36.869Z,3.07
2018-04-24T16:31:40.108Z,2.97
2018-04-24T16:36:42.684Z,3.30
2018-04-24T16:41:46.032Z,3.07
2018-04-24T16:46:49.070Z,2.70
2018-04-24T16:51:53.537Z,2.43
2018-04-24T16:56:56.134Z,2.40
2018-04-24T17:01:59.019Z,2.53
2018-04-24T17:07:02.294Z,3.20
2018-04-24T17:12:05.150Z,2.73
2018-04-24T17:17:07.723Z,2.90
2018-04-24T17:22:11.881Z,2.60
2018-04-24T17:27:17.734Z,3.00
2018-04-24T17:32:20.937Z,3.40
2018-04-24T17:37:23.516Z,2.93
2018-04-24T17:42:26.103Z,2.67
2018-04-24T17:47:29.368Z,2.77
2018-04-24T17:52:33.072Z,3.20
2018-04-24T17:57:36.735Z,3.70
2018-04-24T18:02:39.321Z,2.90
2018-04-24T18:07:42.419Z,3.37
2018-04-24T18:12:45.679Z,4.97
2018-04-24T18:17:49.021Z,3.57
2018-04-24T18:22:51.616Z,3.50
2018-04-24T18:27:54.229Z,3.57
2018-04-24T18:32:56.808Z,5.30
2018-04-24T18:37:59.447Z,5.50
2018-04-24T18:43:08.657Z,5.10
2018-04-24T18:48:11.812Z,3.07
2018-04-24T18:53:14.691Z,2.83
2018-04-24T18:58:17.915Z,3.90
2018-04-24T19:03:20.503Z,3.70
2018-04-24T19:08:24.498Z,3.27
2018-04-24T19:13:28.110Z,3.70
2018-04-24T19:18:36.993Z,3.30
2018-04-24T19:23:40.480Z,3.27
2018-04-24T19:28:43.521Z,4.13
2018-04-24T19:33:46.102Z,3.10
2018-04-24T20:25:10.682Z,4.17
2018-04-24T20:30:14.081Z,3.80
2018-04-24T20:35:17.415Z,3.80
2018-04-24T20:40:19.987Z,4.20
2018-04-24T20:45:23.324Z,3.93
2018-04-24T20:50:25.900Z,4.20
2018-04-24T20:55:30.235Z,4.37
2018-04-24T21:00:36.085Z,4.47
2018-04-24T21:05:39.531Z,4.93
2018-04-24T21:10:46.385Z,5.00
2018-04-24T21:15:49.030Z,4.70
2018-04-24T21:20:52.813Z,4.57
2018-04-24T21:25:55.381Z,4.97
2018-04-24T21:30:57.966Z,5.13
2018-04-24T21:36:01.941Z,5.63
2018-04-24T21:41:04.576Z,6.40
2018-04-24T21:46:08.940Z,5.57
2018-04-24T21:51:13.472Z,5.00
2018-04-24T21:56:16.701Z,5.50
2018-04-24T22:01:19.854Z,5.63
2018-04-24T22:06:22.440Z,5.60
2018-04-24T22:11:25.649Z,5.03
2018-04-24T22:16:28.221Z,5.70
2018-04-24T22:21:30.797Z,6.17
2018-04-24T22:31:43.877Z,6.07
2018-04-24T22:36:47.770Z,6.30
2018-04-24T22:41:50.351Z,6.03
2018-04-24T22:46:53.301Z,5.60
2018-04-24T22:51:56.638Z,4.87
2018-04-24T22:56:59.774Z,4.80
2018-04-24T23:02:02.702Z,5.33
2018-04-24T23:07:05.299Z,5.53
2018-04-24T23:12:21.439Z,5.33
2018-04-24T23:17:37.126Z,5.80
2018-04-24T23:22:41.433Z,5.87
2018-04-24T23:27:44.451Z,5.83
2018-04-24T23:32:47.336Z,5.03
2018-04-24T23:37:50.730Z,5.37
2018-04-24T23:42:54.890Z,4.70
2018-04-24T23:47:57.747Z,5.57
2018-04-24T23:53:03.026Z,5.00
2018-04-24T23:58:06.656Z,5.10
